Terminal Aerodrome Forecast
Issued by NWS Sterling, VA

Home | Current Version | Previous Version | Text Only | Print | Product List | Glossary On
Versions: 1 2 3 4 5 6 7 8 9 10 11 12 13 14 15 16 17 18 19 20 21
000
FTUS41 KLWX 251445 AAA
TAFBWI
TAF AMD
KBWI 251445Z 2515/2618 21007KT P6SM BKN120
     FM251800 20009KT P6SM BKN060
     FM260100 18006KT P6SM SCT060
     FM261300 27006KT P6SM SCT090=

USA.gov is the U.S. government's official web portal to all federal, state and local government web resources and services.